createdAt,value
2024-03-16T00:04:34.836Z,1.40
2024-03-16T00:09:36.249Z,1.50
2024-03-16T00:14:37.591Z,1.60
2024-03-16T00:19:39.085Z,1.38
2024-03-16T00:24:41.524Z,1.38
2024-03-16T00:29:43.879Z,1.02
2024-03-16T00:34:45.890Z,1.48
2024-03-16T00:39:47.223Z,1.10
2024-03-16T00:44:48.632Z,1.33
2024-03-16T00:49:50.062Z,1.20
2024-03-16T00:54:51.553Z,1.27
2024-03-16T00:59:52.976Z,1.60
2024-03-16T01:04:54.628Z,1.10
2024-03-16T01:09:56.563Z,0.95
2024-03-16T01:14:58.499Z,1.23
2024-03-16T01:20:00.477Z,0.90
2024-03-16T01:25:03.138Z,0.85
2024-03-16T01:30:05.427Z,0.98
2024-03-16T01:35:07.950Z,1.13
2024-03-16T01:40:10.846Z,1.10
2024-03-16T01:45:16.130Z,1.02
2024-03-16T01:50:21.506Z,1.30
2024-03-16T01:55:23.189Z,1.50
2024-03-16T02:00:25.067Z,1.42
2024-03-16T02:05:27.106Z,1.42
2024-03-16T02:10:28.404Z,1.63
2024-03-16T02:15:30.065Z,1.15
2024-03-16T02:20:33.089Z,1.45
2024-03-16T02:25:35.583Z,1.27
2024-03-16T02:30:37.407Z,0.95
2024-03-16T02:35:39.499Z,1.38
2024-03-16T02:40:41.192Z,0.90
2024-03-16T02:45:42.563Z,0.88
2024-03-16T02:50:46.398Z,0.90
2024-03-16T02:55:47.780Z,1.00
2024-03-16T03:00:50.902Z,1.15
2024-03-16T03:05:54.031Z,1.65
2024-03-16T03:10:57.145Z,1.35
2024-03-16T03:15:58.508Z,0.98
2024-03-16T03:21:00.149Z,1.00
2024-03-16T03:26:02.201Z,0.82
2024-03-16T03:31:05.049Z,1.10
2024-03-16T03:36:07.004Z,1.27
2024-03-16T03:41:09.120Z,1.13
2024-03-16T03:46:20.003Z,2.05
2024-03-16T03:51:21.803Z,1.33
2024-03-16T03:56:23.275Z,1.33
2024-03-16T04:01:24.946Z,1.58
2024-03-16T04:06:27.102Z,1.00
2024-03-16T04:11:30.641Z,1.23
2024-03-16T04:16:31.988Z,1.35
2024-03-16T04:21:33.771Z,1.42
2024-03-16T04:26:35.270Z,1.25
2024-03-16T04:36:40.420Z,1.65
2024-03-16T04:41:41.790Z,1.30
2024-03-16T04:46:44.102Z,1.20
2024-03-16T04:51:46.817Z,1.30
2024-03-16T04:56:48.664Z,1.75
2024-03-16T05:01:50.850Z,1.27
2024-03-16T05:06:52.243Z,1.23
2024-03-16T05:11:53.775Z,1.38
2024-03-16T05:16:55.656Z,1.52
2024-03-16T05:21:57.261Z,1.17
2024-03-16T05:26:58.613Z,1.00
2024-03-16T05:32:00.546Z,1.45
2024-03-16T05:37:02.322Z,1.27
2024-03-16T05:42:03.962Z,1.98
2024-03-16T05:47:05.443Z,1.73
2024-03-16T05:52:07.092Z,1.52
2024-03-16T05:57:08.709Z,1.40
2024-03-16T06:02:10.354Z,1.40
2024-03-16T06:07:12.450Z,1.40
2024-03-16T06:12:13.823Z,1.20
2024-03-16T06:17:15.789Z,1.08
2024-03-16T06:22:17.793Z,1.50
2024-03-16T06:27:22.737Z,1.42
2024-03-16T06:32:24.427Z,1.30
2024-03-16T06:37:25.891Z,1.20
2024-03-16T06:42:29.490Z,1.00
2024-03-16T06:47:30.940Z,1.47
2024-03-16T06:52:32.476Z,1.30
2024-03-16T06:57:34.974Z,1.58
2024-03-16T07:02:36.937Z,1.42
2024-03-16T07:07:39.703Z,1.08
2024-03-16T07:12:42.093Z,1.27
2024-03-16T07:17:45.382Z,1.30
2024-03-16T07:22:49.205Z,1.77
2024-03-16T07:27:50.667Z,1.40
2024-03-16T07:32:53.111Z,2.05
2024-03-16T07:37:54.679Z,1.60
2024-03-16T07:42:56.980Z,1.90
2024-03-16T07:47:58.690Z,1.80
2024-03-16T07:53:00.050Z,1.80
2024-03-16T07:58:02.385Z,2.13
2024-03-16T08:03:04.450Z,1.48
2024-03-16T08:08:06.583Z,1.90
2024-03-16T08:13:09.452Z,1.77
2024-03-16T08:18:12.428Z,1.65
2024-03-16T08:23:14.448Z,2.03
2024-03-16T08:28:16.084Z,1.50
2024-03-16T08:33:17.637Z,1.60
2024-03-16T08:38:19.025Z,1.33
2024-03-16T08:43:22.335Z,1.02
2024-03-16T08:48:26.007Z,0.70
2024-03-16T08:53:27.439Z,0.77
2024-03-16T08:58:30.840Z,0.73
2024-03-16T09:03:33.098Z,1.10
2024-03-16T09:08:38.467Z,0.68
2024-03-16T09:13:40.033Z,1.00
2024-03-16T09:18:41.786Z,0.60
2024-03-16T09:23:43.095Z,0.50
2024-03-16T09:28:44.386Z,0.60
2024-03-16T09:33:46.012Z,0.40
2024-03-16T09:38:47.552Z,0.65
